sensor_id;sensor_type;location;lat;lon;timestamp;P1;durP1;ratioP1;P2;durP2;ratioP2
9801;SDS011;4940;50.900;4.672;2022-10-19T00:00:32;9.95;;;4.57;;
9801;SDS011;4940;50.900;4.672;2022-10-19T00:03:01;8.43;;;4.40;;
9801;SDS011;4940;50.900;4.672;2022-10-19T00:05:28;8.00;;;4.25;;
9801;SDS011;4940;50.900;4.672;2022-10-19T00:07:56;8.30;;;3.90;;
9801;SDS011;4940;50.900;4.672;2022-10-19T00:10:25;7.80;;;4.40;;
9801;SDS011;4940;50.900;4.672;2022-10-19T00:12:53;10.57;;;4.40;;
9801;SDS011;4940;50.900;4.672;2022-10-19T00:15:20;7.78;;;4.40;;
9801;SDS011;4940;50.900;4.672;2022-10-19T00:17:47;11.55;;;4.07;;
9801;SDS011;4940;50.900;4.672;2022-10-19T00:20:16;9.25;;;5.15;;
9801;SDS011;4940;50.900;4.672;2022-10-19T00:22:43;8.20;;;4.13;;
9801;SDS011;4940;50.900;4.672;2022-10-19T00:25:10;12.75;;;4.25;;
9801;SDS011;4940;50.900;4.672;2022-10-19T00:27:38;8.48;;;4.40;;
9801;SDS011;4940;50.900;4.672;2022-10-19T00:30:05;7.97;;;4.38;;
9801;SDS011;4940;50.900;4.672;2022-10-19T00:32:33;10.00;;;4.20;;
9801;SDS011;4940;50.900;4.672;2022-10-19T00:35:01;7.88;;;3.58;;
9801;SDS011;4940;50.900;4.672;2022-10-19T00:37:29;8.93;;;3.83;;
9801;SDS011;4940;50.900;4.672;2022-10-19T00:39:56;7.40;;;4.35;;
9801;SDS011;4940;50.900;4.672;2022-10-19T00:42:24;9.77;;;4.18;;
9801;SDS011;4940;50.900;4.672;2022-10-19T00:45:05;11.38;;;4.35;;
9801;SDS011;4940;50.900;4.672;2022-10-19T00:47:38;8.43;;;4.07;;
9801;SDS011;4940;50.900;4.672;2022-10-19T00:50:07;10.18;;;4.20;;
9801;SDS011;4940;50.900;4.672;2022-10-19T00:52:37;10.35;;;3.90;;
9801;SDS011;4940;50.900;4.672;2022-10-19T00:55:05;14.27;;;4.22;;
9801;SDS011;4940;50.900;4.672;2022-10-19T00:57:34;11.77;;;4.32;;
9801;SDS011;4940;50.900;4.672;2022-10-19T01:00:03;9.65;;;4.10;;
9801;SDS011;4940;50.900;4.672;2022-10-19T01:02:32;7.65;;;3.88;;
9801;SDS011;4940;50.900;4.672;2022-10-19T01:04:59;5.55;;;3.63;;
9801;SDS011;4940;50.900;4.672;2022-10-19T01:07:27;4.57;;;3.28;;
9801;SDS011;4940;50.900;4.672;2022-10-19T01:09:56;8.05;;;3.95;;
9801;SDS011;4940;50.900;4.672;2022-10-19T01:12:30;7.90;;;3.65;;
9801;SDS011;4940;50.900;4.672;2022-10-19T01:15:19;11.57;;;3.80;;
9801;SDS011;4940;50.900;4.672;2022-10-19T01:17:55;11.23;;;3.85;;
9801;SDS011;4940;50.900;4.672;2022-10-19T01:20:34;7.70;;;3.88;;
9801;SDS011;4940;50.900;4.672;2022-10-19T01:23:29;6.47;;;3.95;;
9801;SDS011;4940;50.900;4.672;2022-10-19T01:26:11;9.57;;;3.88;;
9801;SDS011;4940;50.900;4.672;2022-10-19T01:28:51;12.93;;;4.20;;
9801;SDS011;4940;50.900;4.672;2022-10-19T01:31:30;7.20;;;3.75;;
9801;SDS011;4940;50.900;4.672;2022-10-19T01:34:05;6.60;;;4.05;;
9801;SDS011;4940;50.900;4.672;2022-10-19T01:36:38;15.50;;;4.25;;
9801;SDS011;4940;50.900;4.672;2022-10-19T01:39:12;8.20;;;3.42;;
9801;SDS011;4940;50.900;4.672;2022-10-19T01:41:45;7.25;;;3.88;;
9801;SDS011;4940;50.900;4.672;2022-10-19T01:44:21;10.98;;;3.95;;
9801;SDS011;4940;50.900;4.672;2022-10-19T01:46:54;10.73;;;4.18;;
9801;SDS011;4940;50.900;4.672;2022-10-19T01:49:27;8.27;;;4.22;;
9801;SDS011;4940;50.900;4.672;2022-10-19T01:52:00;10.60;;;4.40;;
9801;SDS011;4940;50.900;4.672;2022-10-19T01:54:31;9.43;;;4.50;;
9801;SDS011;4940;50.900;4.672;2022-10-19T01:57:02;10.02;;;3.92;;
9801;SDS011;4940;50.900;4.672;2022-10-19T01:59:31;9.35;;;4.05;;
9801;SDS011;4940;50.900;4.672;2022-10-19T02:02:01;7.70;;;4.22;;
9801;SDS011;4940;50.900;4.672;2022-10-19T02:04:29;9.57;;;4.00;;
9801;SDS011;4940;50.900;4.672;2022-10-19T02:06:58;8.50;;;4.05;;
9801;SDS011;4940;50.900;4.672;2022-10-19T02:09:27;14.90;;;4.70;;
9801;SDS011;4940;50.900;4.672;2022-10-19T02:11:55;10.55;;;4.78;;
9801;SDS011;4940;50.900;4.672;2022-10-19T02:14:25;14.23;;;4.47;;
9801;SDS011;4940;50.900;4.672;2022-10-19T02:16:56;9.05;;;4.78;;
9801;SDS011;4940;50.900;4.672;2022-10-19T02:19:28;8.52;;;4.10;;
9801;SDS011;4940;50.900;4.672;2022-10-19T02:21:56;13.15;;;4.75;;
9801;SDS011;4940;50.900;4.672;2022-10-19T02:24:23;10.40;;;4.55;;
9801;SDS011;4940;50.900;4.672;2022-10-19T02:26:51;7.40;;;4.78;;
9801;SDS011;4940;50.900;4.672;2022-10-19T02:29:21;10.32;;;4.90;;
9801;SDS011;4940;50.900;4.672;2022-10-19T02:31:48;10.45;;;4.20;;
9801;SDS011;4940;50.900;4.672;2022-10-19T02:34:16;9.88;;;4.38;;
9801;SDS011;4940;50.900;4.672;2022-10-19T02:36:44;10.23;;;4.20;;
9801;SDS011;4940;50.900;4.672;2022-10-19T02:39:11;9.93;;;4.35;;
9801;SDS011;4940;50.900;4.672;2022-10-19T02:41:41;6.97;;;4.25;;
9801;SDS011;4940;50.900;4.672;2022-10-19T02:44:13;8.38;;;4.15;;
9801;SDS011;4940;50.900;4.672;2022-10-19T02:46:44;11.60;;;4.18;;
9801;SDS011;4940;50.900;4.672;2022-10-19T02:49:15;8.25;;;3.42;;
9801;SDS011;4940;50.900;4.672;2022-10-19T02:51:55;8.60;;;3.50;;
9801;SDS011;4940;50.900;4.672;2022-10-19T02:54:24;9.10;;;4.28;;
9801;SDS011;4940;50.900;4.672;2022-10-19T02:56:51;11.68;;;4.53;;
9801;SDS011;4940;50.900;4.672;2022-10-19T02:59:19;11.02;;;4.40;;
9801;SDS011;4940;50.900;4.672;2022-10-19T03:01:46;10.70;;;4.30;;
9801;SDS011;4940;50.900;4.672;2022-10-19T03:04:13;11.50;;;4.32;;
9801;SDS011;4940;50.900;4.672;2022-10-19T03:06:41;9.93;;;4.50;;
9801;SDS011;4940;50.900;4.672;2022-10-19T03:09:09;10.38;;;4.18;;
9801;SDS011;4940;50.900;4.672;2022-10-19T03:11:37;14.40;;;5.05;;
9801;SDS011;4940;50.900;4.672;2022-10-19T03:14:04;8.48;;;4.13;;
9801;SDS011;4940;50.900;4.672;2022-10-19T03:16:31;9.20;;;4.15;;
9801;SDS011;4940;50.900;4.672;2022-10-19T03:18:59;15.43;;;4.85;;
9801;SDS011;4940;50.900;4.672;2022-10-19T03:21:26;15.25;;;5.20;;
9801;SDS011;4940;50.900;4.672;2022-10-19T03:23:53;9.10;;;5.28;;
9801;SDS011;4940;50.900;4.672;2022-10-19T03:26:22;9.48;;;4.95;;
9801;SDS011;4940;50.900;4.672;2022-10-19T03:28:49;16.15;;;5.45;;
9801;SDS011;4940;50.900;4.672;2022-10-19T03:31:16;16.90;;;5.50;;
9801;SDS011;4940;50.900;4.672;2022-10-19T03:33:44;11.43;;;5.47;;
9801;SDS011;4940;50.900;4.672;2022-10-19T03:36:12;17.92;;;5.70;;
9801;SDS011;4940;50.900;4.672;2022-10-19T03:38:42;11.13;;;5.85;;
9801;SDS011;4940;50.900;4.672;2022-10-19T03:41:10;11.48;;;5.55;;
9801;SDS011;4940;50.900;4.672;2022-10-19T03:43:39;15.57;;;5.95;;
9801;SDS011;4940;50.900;4.672;2022-10-19T03:46:06;12.65;;;5.43;;
9801;SDS011;4940;50.900;4.672;2022-10-19T03:48:34;12.52;;;5.57;;
9801;SDS011;4940;50.900;4.672;2022-10-19T03:51:02;12.20;;;5.95;;
9801;SDS011;4940;50.900;4.672;2022-10-19T03:53:31;12.98;;;6.38;;
9801;SDS011;4940;50.900;4.672;2022-10-19T03:55:59;17.02;;;5.85;;
9801;SDS011;4940;50.900;4.672;2022-10-19T03:58:27;11.68;;;5.70;;
9801;SDS011;4940;50.900;4.672;2022-10-19T04:00:56;19.63;;;6.45;;
9801;SDS011;4940;50.900;4.672;2022-10-19T04:03:23;15.73;;;6.28;;
9801;SDS011;4940;50.900;4.672;2022-10-19T04:05:50;13.77;;;6.00;;
9801;SDS011;4940;50.900;4.672;2022-10-19T04:08:18;11.05;;;6.15;;
9801;SDS011;4940;50.900;4.672;2022-10-19T04:10:45;14.88;;;5.80;;
9801;SDS011;4940;50.900;4.672;2022-10-19T04:13:12;14.38;;;6.18;;
9801;SDS011;4940;50.900;4.672;2022-10-19T04:15:39;16.42;;;6.07;;
9801;SDS011;4940;50.900;4.672;2022-10-19T04:18:08;10.40;;;5.93;;
9801;SDS011;4940;50.900;4.672;2022-10-19T04:20:35;15.30;;;6.40;;
9801;SDS011;4940;50.900;4.672;2022-10-19T04:23:06;11.05;;;5.80;;
9801;SDS011;4940;50.900;4.672;2022-10-19T04:25:34;18.30;;;6.20;;
9801;SDS011;4940;50.900;4.672;2022-10-19T04:28:01;10.45;;;6.00;;
9801;SDS011;4940;50.900;4.672;2022-10-19T04:30:29;10.85;;;5.25;;
9801;SDS011;4940;50.900;4.672;2022-10-19T04:32:56;13.43;;;5.63;;
9801;SDS011;4940;50.900;4.672;2022-10-19T04:35:25;11.20;;;5.10;;
9801;SDS011;4940;50.900;4.672;2022-10-19T04:37:52;16.00;;;6.32;;
9801;SDS011;4940;50.900;4.672;2022-10-19T04:40:19;13.90;;;5.78;;
9801;SDS011;4940;50.900;4.672;2022-10-19T04:42:46;9.98;;;5.78;;
9801;SDS011;4940;50.900;4.672;2022-10-19T04:45:14;13.50;;;5.55;;
9801;SDS011;4940;50.900;4.672;2022-10-19T04:47:41;19.65;;;6.85;;
9801;SDS011;4940;50.900;4.672;2022-10-19T04:50:08;12.70;;;5.75;;
9801;SDS011;4940;50.900;4.672;2022-10-19T04:52:37;21.08;;;6.68;;
9801;SDS011;4940;50.900;4.672;2022-10-19T04:55:04;16.75;;;6.15;;
9801;SDS011;4940;50.900;4.672;2022-10-19T04:57:32;13.48;;;6.28;;
9801;SDS011;4940;50.900;4.672;2022-10-19T04:59:59;17.63;;;6.97;;
9801;SDS011;4940;50.900;4.672;2022-10-19T05:02:26;19.90;;;6.90;;
9801;SDS011;4940;50.900;4.672;2022-10-19T05:04:54;13.27;;;6.70;;
9801;SDS011;4940;50.900;4.672;2022-10-19T05:07:21;23.33;;;6.68;;
9801;SDS011;4940;50.900;4.672;2022-10-19T05:09:50;12.87;;;7.00;;
9801;SDS011;4940;50.900;4.672;2022-10-19T05:12:17;16.40;;;7.00;;
9801;SDS011;4940;50.900;4.672;2022-10-19T05:14:44;13.55;;;7.43;;
9801;SDS011;4940;50.900;4.672;2022-10-19T05:17:12;18.17;;;7.90;;
9801;SDS011;4940;50.900;4.672;2022-10-19T05:19:39;15.80;;;7.15;;
9801;SDS011;4940;50.900;4.672;2022-10-19T05:22:07;26.65;;;9.15;;
9801;SDS011;4940;50.900;4.672;2022-10-19T05:24:34;15.70;;;8.10;;
9801;SDS011;4940;50.900;4.672;2022-10-19T05:27:03;16.30;;;7.53;;
9801;SDS011;4940;50.900;4.672;2022-10-19T05:29:30;17.25;;;8.40;;
9801;SDS011;4940;50.900;4.672;2022-10-19T05:31:58;11.55;;;7.28;;
9801;SDS011;4940;50.900;4.672;2022-10-19T05:34:25;17.05;;;8.02;;
9801;SDS011;4940;50.900;4.672;2022-10-19T05:36:53;18.38;;;7.40;;
9801;SDS011;4940;50.900;4.672;2022-10-19T05:39:21;21.15;;;8.07;;
9801;SDS011;4940;50.900;4.672;2022-10-19T05:41:48;15.98;;;7.03;;
9801;SDS011;4940;50.900;4.672;2022-10-19T05:44:18;17.52;;;6.53;;
9801;SDS011;4940;50.900;4.672;2022-10-19T05:46:46;15.98;;;8.23;;
9801;SDS011;4940;50.900;4.672;2022-10-19T05:49:14;13.95;;;7.60;;
9801;SDS011;4940;50.900;4.672;2022-10-19T05:51:43;18.55;;;7.32;;
9801;SDS011;4940;50.900;4.672;2022-10-19T05:54:10;17.43;;;7.50;;
9801;SDS011;4940;50.900;4.672;2022-10-19T05:56:39;16.70;;;7.60;;
9801;SDS011;4940;50.900;4.672;2022-10-19T05:59:07;19.70;;;7.93;;
9801;SDS011;4940;50.900;4.672;2022-10-19T06:01:40;15.68;;;6.85;;
9801;SDS011;4940;50.900;4.672;2022-10-19T06:04:07;19.43;;;7.57;;
9801;SDS011;4940;50.900;4.672;2022-10-19T06:06:35;18.48;;;7.50;;
9801;SDS011;4940;50.900;4.672;2022-10-19T06:09:02;16.85;;;7.35;;
9801;SDS011;4940;50.900;4.672;2022-10-19T06:11:30;16.70;;;7.63;;
9801;SDS011;4940;50.900;4.672;2022-10-19T06:13:59;20.47;;;8.00;;
9801;SDS011;4940;50.900;4.672;2022-10-19T06:16:28;16.03;;;7.33;;
9801;SDS011;4940;50.900;4.672;2022-10-19T06:18:57;20.07;;;7.87;;
9801;SDS011;4940;50.900;4.672;2022-10-19T06:21:26;13.05;;;6.75;;
9801;SDS011;4940;50.900;4.672;2022-10-19T06:23:55;12.27;;;7.47;;
9801;SDS011;4940;50.900;4.672;2022-10-19T06:26:24;17.60;;;8.03;;
9801;SDS011;4940;50.900;4.672;2022-10-19T06:28:53;17.53;;;7.53;;
9801;SDS011;4940;50.900;4.672;2022-10-19T06:31:22;17.30;;;7.80;;
9801;SDS011;4940;50.900;4.672;2022-10-19T06:33:49;21.07;;;7.90;;
9801;SDS011;4940;50.900;4.672;2022-10-19T06:36:18;18.52;;;8.10;;
9801;SDS011;4940;50.900;4.672;2022-10-19T06:38:47;16.83;;;7.73;;
9801;SDS011;4940;50.900;4.672;2022-10-19T06:41:14;19.53;;;7.90;;
9801;SDS011;4940;50.900;4.672;2022-10-19T06:43:42;19.67;;;8.40;;
9801;SDS011;4940;50.900;4.672;2022-10-19T06:46:11;22.70;;;8.70;;
9801;SDS011;4940;50.900;4.672;2022-10-19T06:48:48;19.75;;;8.18;;
9801;SDS011;4940;50.900;4.672;2022-10-19T06:51:15;19.35;;;8.68;;
9801;SDS011;4940;50.900;4.672;2022-10-19T06:53:44;17.80;;;8.38;;
9801;SDS011;4940;50.900;4.672;2022-10-19T06:56:11;18.95;;;8.70;;
9801;SDS011;4940;50.900;4.672;2022-10-19T06:58:38;26.73;;;9.15;;
9801;SDS011;4940;50.900;4.672;2022-10-19T07:01:06;23.60;;;9.43;;
9801;SDS011;4940;50.900;4.672;2022-10-19T07:03:35;21.60;;;9.38;;
9801;SDS011;4940;50.900;4.672;2022-10-19T07:06:03;23.52;;;9.70;;
9801;SDS011;4940;50.900;4.672;2022-10-19T07:08:31;18.23;;;8.85;;
9801;SDS011;4940;50.900;4.672;2022-10-19T07:11:02;19.67;;;9.43;;
9801;SDS011;4940;50.900;4.672;2022-10-19T07:13:30;16.42;;;9.52;;
9801;SDS011;4940;50.900;4.672;2022-10-19T07:15:58;25.10;;;9.93;;
9801;SDS011;4940;50.900;4.672;2022-10-19T07:18:27;27.23;;;10.80;;
9801;SDS011;4940;50.900;4.672;2022-10-19T07:20:55;28.75;;;11.15;;
9801;SDS011;4940;50.900;4.672;2022-10-19T07:23:23;26.27;;;10.43;;
9801;SDS011;4940;50.900;4.672;2022-10-19T07:25:50;23.40;;;10.60;;
9801;SDS011;4940;50.900;4.672;2022-10-19T07:28:19;23.42;;;11.10;;
9801;SDS011;4940;50.900;4.672;2022-10-19T07:30:47;21.23;;;10.57;;
9801;SDS011;4940;50.900;4.672;2022-10-19T07:33:14;24.48;;;11.82;;
9801;SDS011;4940;50.900;4.672;2022-10-19T07:35:42;26.20;;;10.75;;
9801;SDS011;4940;50.900;4.672;2022-10-19T07:38:09;32.10;;;11.93;;
9801;SDS011;4940;50.900;4.672;2022-10-19T07:40:36;29.73;;;11.40;;
9801;SDS011;4940;50.900;4.672;2022-10-19T07:43:04;21.70;;;12.35;;
9801;SDS011;4940;50.900;4.672;2022-10-19T07:45:32;30.20;;;13.13;;
9801;SDS011;4940;50.900;4.672;2022-10-19T07:47:59;35.40;;;13.75;;
9801;SDS011;4940;50.900;4.672;2022-10-19T07:50:27;26.50;;;12.43;;
9801;SDS011;4940;50.900;4.672;2022-10-19T07:52:54;25.38;;;13.98;;
9801;SDS011;4940;50.900;4.672;2022-10-19T07:55:22;29.77;;;14.02;;
9801;SDS011;4940;50.900;4.672;2022-10-19T07:57:49;31.05;;;14.90;;
9801;SDS011;4940;50.900;4.672;2022-10-19T08:00:16;26.35;;;13.65;;
9801;SDS011;4940;50.900;4.672;2022-10-19T08:02:45;25.95;;;13.93;;
9801;SDS011;4940;50.900;4.672;2022-10-19T08:05:12;26.02;;;12.82;;
9801;SDS011;4940;50.900;4.672;2022-10-19T08:07:39;25.38;;;11.23;;
9801;SDS011;4940;50.900;4.672;2022-10-19T08:10:07;16.60;;;9.85;;
9801;SDS011;4940;50.900;4.672;2022-10-19T08:12:35;17.95;;;8.65;;
9801;SDS011;4940;50.900;4.672;2022-10-19T08:15:03;15.60;;;8.82;;
9801;SDS011;4940;50.900;4.672;2022-10-19T08:17:31;16.92;;;8.90;;
9801;SDS011;4940;50.900;4.672;2022-10-19T08:20:02;16.02;;;8.35;;
9801;SDS011;4940;50.900;4.672;2022-10-19T08:22:30;12.43;;;7.57;;
9801;SDS011;4940;50.900;4.672;2022-10-19T08:24:57;15.20;;;7.18;;
9801;SDS011;4940;50.900;4.672;2022-10-19T08:27:25;15.52;;;7.85;;
9801;SDS011;4940;50.900;4.672;2022-10-19T08:29:53;12.90;;;6.38;;
9801;SDS011;4940;50.900;4.672;2022-10-19T08:32:20;11.65;;;6.93;;
9801;SDS011;4940;50.900;4.672;2022-10-19T08:34:48;10.88;;;6.20;;
9801;SDS011;4940;50.900;4.672;2022-10-19T08:37:17;12.93;;;5.50;;
9801;SDS011;4940;50.900;4.672;2022-10-19T08:39:44;10.23;;;6.65;;
9801;SDS011;4940;50.900;4.672;2022-10-19T08:42:13;14.70;;;6.28;;
9801;SDS011;4940;50.900;4.672;2022-10-19T08:50:29;12.80;;;5.47;;
9801;SDS011;4940;50.900;4.672;2022-10-19T08:53:03;9.60;;;5.75;;
9801;SDS011;4940;50.900;4.672;2022-10-19T08:55:36;8.30;;;4.97;;
9801;SDS011;4940;50.900;4.672;2022-10-19T08:58:24;14.77;;;5.70;;
9801;SDS011;4940;50.900;4.672;2022-10-19T09:01:05;9.02;;;4.95;;
9801;SDS011;4940;50.900;4.672;2022-10-19T09:03:37;11.23;;;5.65;;
9801;SDS011;4940;50.900;4.672;2022-10-19T09:06:13;11.27;;;6.18;;
9801;SDS011;4940;50.900;4.672;2022-10-19T09:08:48;10.35;;;4.70;;
9801;SDS011;4940;50.900;4.672;2022-10-19T09:11:18;10.45;;;5.07;;
9801;SDS011;4940;50.900;4.672;2022-10-19T09:13:50;8.98;;;4.95;;
9801;SDS011;4940;50.900;4.672;2022-10-19T09:16:25;13.30;;;5.05;;
9801;SDS011;4940;50.900;4.672;2022-10-19T09:18:53;11.23;;;5.18;;
9801;SDS011;4940;50.900;4.672;2022-10-19T09:21:20;7.55;;;4.85;;
9801;SDS011;4940;50.900;4.672;2022-10-19T09:23:54;9.52;;;4.72;;
9801;SDS011;4940;50.900;4.672;2022-10-19T09:26:29;9.38;;;4.45;;
9801;SDS011;4940;50.900;4.672;2022-10-19T09:29:00;7.60;;;4.78;;
9801;SDS011;4940;50.900;4.672;2022-10-19T09:31:32;8.63;;;4.68;;
9801;SDS011;4940;50.900;4.672;2022-10-19T09:34:02;11.63;;;6.97;;
9801;SDS011;4940;50.900;4.672;2022-10-19T09:36:34;7.43;;;4.28;;
9801;SDS011;4940;50.900;4.672;2022-10-19T09:39:05;10.23;;;4.47;;
9801;SDS011;4940;50.900;4.672;2022-10-19T09:41:32;11.00;;;4.40;;
9801;SDS011;4940;50.900;4.672;2022-10-19T09:43:59;6.43;;;4.35;;
9801;SDS011;4940;50.900;4.672;2022-10-19T09:46:32;8.20;;;4.20;;
9801;SDS011;4940;50.900;4.672;2022-10-19T09:49:04;7.78;;;4.32;;
9801;SDS011;4940;50.900;4.672;2022-10-19T09:51:39;10.60;;;5.38;;
9801;SDS011;4940;50.900;4.672;2022-10-19T09:54:30;8.63;;;4.72;;
9801;SDS011;4940;50.900;4.672;2022-10-19T09:57:00;7.15;;;4.10;;
9801;SDS011;4940;50.900;4.672;2022-10-19T09:59:28;13.52;;;4.20;;
9801;SDS011;4940;50.900;4.672;2022-10-19T10:02:03;9.77;;;4.80;;
9801;SDS011;4940;50.900;4.672;2022-10-19T10:04:41;9.93;;;3.80;;
9801;SDS011;4940;50.900;4.672;2022-10-19T10:07:13;11.82;;;4.60;;
9801;SDS011;4940;50.900;4.672;2022-10-19T10:09:43;8.25;;;4.68;;
9801;SDS011;4940;50.900;4.672;2022-10-19T10:12:12;9.27;;;4.75;;
9801;SDS011;4940;50.900;4.672;2022-10-19T10:14:41;8.88;;;4.22;;
9801;SDS011;4940;50.900;4.672;2022-10-19T10:17:11;10.88;;;4.43;;
9801;SDS011;4940;50.900;4.672;2022-10-19T10:19:49;7.55;;;3.92;;
9801;SDS011;4940;50.900;4.672;2022-10-19T10:22:23;11.43;;;4.82;;
9801;SDS011;4940;50.900;4.672;2022-10-19T10:24:52;11.02;;;4.88;;
9801;SDS011;4940;50.900;4.672;2022-10-19T10:27:25;10.82;;;4.47;;
9801;SDS011;4940;50.900;4.672;2022-10-19T10:29:56;6.30;;;3.88;;
9801;SDS011;4940;50.900;4.672;2022-10-19T10:32:24;7.25;;;4.18;;
9801;SDS011;4940;50.900;4.672;2022-10-19T10:34:56;7.60;;;3.72;;
9801;SDS011;4940;50.900;4.672;2022-10-19T10:37:27;7.70;;;4.38;;
9801;SDS011;4940;50.900;4.672;2022-10-19T10:40:00;6.50;;;4.30;;
9801;SDS011;4940;50.900;4.672;2022-10-19T10:42:29;11.80;;;5.15;;
9801;SDS011;4940;50.900;4.672;2022-10-19T10:45:02;10.57;;;4.43;;
9801;SDS011;4940;50.900;4.672;2022-10-19T10:47:30;11.70;;;4.70;;
9801;SDS011;4940;50.900;4.672;2022-10-19T10:49:57;11.13;;;4.43;;
9801;SDS011;4940;50.900;4.672;2022-10-19T10:52:28;9.15;;;4.80;;
9801;SDS011;4940;50.900;4.672;2022-10-19T10:54:57;6.97;;;4.15;;
9801;SDS011;4940;50.900;4.672;2022-10-19T10:57:28;10.95;;;4.57;;
9801;SDS011;4940;50.900;4.672;2022-10-19T11:00:00;9.50;;;4.18;;
9801;SDS011;4940;50.900;4.672;2022-10-19T11:02:36;10.07;;;5.25;;
9801;SDS011;4940;50.900;4.672;2022-10-19T11:05:11;13.95;;;4.82;;
9801;SDS011;4940;50.900;4.672;2022-10-19T11:07:43;10.10;;;4.85;;
9801;SDS011;4940;50.900;4.672;2022-10-19T11:10:15;10.52;;;4.22;;
9801;SDS011;4940;50.900;4.672;2022-10-19T11:12:50;9.15;;;5.13;;
9801;SDS011;4940;50.900;4.672;2022-10-19T11:15:21;8.65;;;4.60;;
9801;SDS011;4940;50.900;4.672;2022-10-19T11:17:54;9.95;;;4.30;;
9801;SDS011;4940;50.900;4.672;2022-10-19T11:20:30;10.43;;;5.15;;
9801;SDS011;4940;50.900;4.672;2022-10-19T11:23:02;8.90;;;4.63;;
9801;SDS011;4940;50.900;4.672;2022-10-19T11:25:39;11.70;;;5.53;;
9801;SDS011;4940;50.900;4.672;2022-10-19T11:28:19;7.47;;;4.85;;
9801;SDS011;4940;50.900;4.672;2022-10-19T11:30:58;12.20;;;5.53;;
9801;SDS011;4940;50.900;4.672;2022-10-19T11:33:42;9.27;;;5.07;;
9801;SDS011;4940;50.900;4.672;2022-10-19T11:36:19;10.55;;;5.20;;
9801;SDS011;4940;50.900;4.672;2022-10-19T11:39:01;10.18;;;5.25;;
9801;SDS011;4940;50.900;4.672;2022-10-19T11:41:43;11.38;;;5.47;;
9801;SDS011;4940;50.900;4.672;2022-10-19T11:44:20;9.32;;;5.90;;
9801;SDS011;4940;50.900;4.672;2022-10-19T11:47:02;12.32;;;5.38;;
9801;SDS011;4940;50.900;4.672;2022-10-19T11:49:43;9.02;;;5.18;;
9801;SDS011;4940;50.900;4.672;2022-10-19T11:52:23;14.48;;;5.43;;
9801;SDS011;4940;50.900;4.672;2022-10-19T11:55:01;14.70;;;5.63;;
9801;SDS011;4940;50.900;4.672;2022-10-19T11:57:42;9.27;;;5.32;;
9801;SDS011;4940;50.900;4.672;2022-10-19T12:00:18;12.60;;;5.72;;
9801;SDS011;4940;50.900;4.672;2022-10-19T12:05:37;11.65;;;4.68;;
9801;SDS011;4940;50.900;4.672;2022-10-19T12:08:18;11.18;;;5.45;;
9801;SDS011;4940;50.900;4.672;2022-10-19T12:10:56;9.80;;;4.70;;
9801;SDS011;4940;50.900;4.672;2022-10-19T12:13:32;10.93;;;4.80;;
9801;SDS011;4940;50.900;4.672;2022-10-19T12:16:06;10.38;;;4.85;;
9801;SDS011;4940;50.900;4.672;2022-10-19T12:18:37;8.10;;;4.32;;
9801;SDS011;4940;50.900;4.672;2022-10-19T12:21:10;12.73;;;5.25;;
9801;SDS011;4940;50.900;4.672;2022-10-19T12:23:43;9.35;;;4.38;;
9801;SDS011;4940;50.900;4.672;2022-10-19T12:26:13;9.75;;;4.43;;
9801;SDS011;4940;50.900;4.672;2022-10-19T12:28:45;8.48;;;4.60;;
9801;SDS011;4940;50.900;4.672;2022-10-19T12:31:16;10.43;;;4.78;;
9801;SDS011;4940;50.900;4.672;2022-10-19T12:33:46;11.65;;;5.00;;
9801;SDS011;4940;50.900;4.672;2022-10-19T12:36:29;8.20;;;4.75;;
9801;SDS011;4940;50.900;4.672;2022-10-19T12:39:06;7.50;;;4.85;;
9801;SDS011;4940;50.900;4.672;2022-10-19T12:41:42;9.43;;;4.65;;
9801;SDS011;4940;50.900;4.672;2022-10-19T12:44:26;9.45;;;5.05;;
9801;SDS011;4940;50.900;4.672;2022-10-19T12:47:08;9.38;;;4.82;;
9801;SDS011;4940;50.900;4.672;2022-10-19T12:49:43;9.18;;;5.57;;
9801;SDS011;4940;50.900;4.672;2022-10-19T12:52:12;7.65;;;4.53;;
9801;SDS011;4940;50.900;4.672;2022-10-19T12:54:40;11.20;;;4.95;;
9801;SDS011;4940;50.900;4.672;2022-10-19T12:57:25;10.07;;;4.88;;
9801;SDS011;4940;50.900;4.672;2022-10-19T13:00:01;7.53;;;4.38;;
9801;SDS011;4940;50.900;4.672;2022-10-19T13:02:33;9.13;;;5.07;;
9801;SDS011;4940;50.900;4.672;2022-10-19T13:05:01;8.02;;;4.65;;
9801;SDS011;4940;50.900;4.672;2022-10-19T13:07:31;7.82;;;4.65;;
9801;SDS011;4940;50.900;4.672;2022-10-19T13:10:00;8.80;;;5.03;;
9801;SDS011;4940;50.900;4.672;2022-10-19T13:12:41;8.05;;;4.10;;
9801;SDS011;4940;50.900;4.672;2022-10-19T13:24:35;9.07;;;4.80;;
9801;SDS011;4940;50.900;4.672;2022-10-19T13:30:04;7.90;;;4.90;;
9801;SDS011;4940;50.900;4.672;2022-10-19T13:32:53;10.18;;;5.15;;
9801;SDS011;4940;50.900;4.672;2022-10-19T13:35:21;8.93;;;4.10;;
9801;SDS011;4940;50.900;4.672;2022-10-19T13:38:10;7.80;;;4.38;;
9801;SDS011;4940;50.900;4.672;2022-10-19T13:41:10;8.10;;;4.38;;
9801;SDS011;4940;50.900;4.672;2022-10-19T13:43:48;7.70;;;4.85;;
9801;SDS011;4940;50.900;4.672;2022-10-19T13:46:18;12.88;;;4.65;;
9801;SDS011;4940;50.900;4.672;2022-10-19T13:48:57;13.48;;;5.15;;
9801;SDS011;4940;50.900;4.672;2022-10-19T13:51:57;12.43;;;5.47;;
9801;SDS011;4940;50.900;4.672;2022-10-19T13:54:39;10.18;;;5.00;;
9801;SDS011;4940;50.900;4.672;2022-10-19T13:57:25;9.30;;;5.15;;
9801;SDS011;4940;50.900;4.672;2022-10-19T14:00:15;11.15;;;5.90;;
9801;SDS011;4940;50.900;4.672;2022-10-19T14:05:41;10.10;;;4.85;;
9801;SDS011;4940;50.900;4.672;2022-10-19T14:08:21;11.35;;;5.50;;
9801;SDS011;4940;50.900;4.672;2022-10-19T14:11:00;15.93;;;5.93;;
9801;SDS011;4940;50.900;4.672;2022-10-19T14:13:30;13.75;;;6.25;;
9801;SDS011;4940;50.900;4.672;2022-10-19T14:15:58;10.13;;;6.10;;
9801;SDS011;4940;50.900;4.672;2022-10-19T14:18:28;13.75;;;6.65;;
9801;SDS011;4940;50.900;4.672;2022-10-19T14:20:57;9.50;;;6.75;;
9801;SDS011;4940;50.900;4.672;2022-10-19T14:23:25;10.50;;;6.38;;
9801;SDS011;4940;50.900;4.672;2022-10-19T14:25:53;12.20;;;6.90;;
9801;SDS011;4940;50.900;4.672;2022-10-19T14:28:23;12.60;;;7.43;;
9801;SDS011;4940;50.900;4.672;2022-10-19T14:30:56;10.77;;;6.47;;
9801;SDS011;4940;50.900;4.672;2022-10-19T14:33:25;13.73;;;6.47;;
9801;SDS011;4940;50.900;4.672;2022-10-19T14:35:53;12.10;;;6.88;;
9801;SDS011;4940;50.900;4.672;2022-10-19T14:38:23;14.57;;;7.13;;
9801;SDS011;4940;50.900;4.672;2022-10-19T14:40:53;13.73;;;7.55;;
9801;SDS011;4940;50.900;4.672;2022-10-19T14:43:22;19.75;;;7.30;;
9801;SDS011;4940;50.900;4.672;2022-10-19T14:46:08;14.50;;;6.85;;
9801;SDS011;4940;50.900;4.672;2022-10-19T14:48:37;16.25;;;7.57;;
9801;SDS011;4940;50.900;4.672;2022-10-19T14:51:06;12.43;;;6.75;;
9801;SDS011;4940;50.900;4.672;2022-10-19T14:53:40;13.57;;;7.45;;
9801;SDS011;4940;50.900;4.672;2022-10-19T14:56:11;11.60;;;7.32;;
9801;SDS011;4940;50.900;4.672;2022-10-19T14:58:43;11.65;;;7.20;;
9801;SDS011;4940;50.900;4.672;2022-10-19T15:01:15;13.23;;;7.57;;
9801;SDS011;4940;50.900;4.672;2022-10-19T15:03:44;16.73;;;7.68;;
9801;SDS011;4940;50.900;4.672;2022-10-19T15:06:12;14.30;;;8.45;;
9801;SDS011;4940;50.900;4.672;2022-10-19T15:08:44;15.18;;;7.45;;
9801;SDS011;4940;50.900;4.672;2022-10-19T15:11:21;16.98;;;8.00;;
9801;SDS011;4940;50.900;4.672;2022-10-19T15:13:59;11.82;;;7.97;;
9801;SDS011;4940;50.900;4.672;2022-10-19T15:16:32;16.13;;;7.60;;
9801;SDS011;4940;50.900;4.672;2022-10-19T15:19:13;16.95;;;8.27;;
9801;SDS011;4940;50.900;4.672;2022-10-19T15:21:43;15.60;;;7.72;;
9801;SDS011;4940;50.900;4.672;2022-10-19T15:24:15;17.45;;;9.25;;
9801;SDS011;4940;50.900;4.672;2022-10-19T15:26:51;18.25;;;9.75;;
9801;SDS011;4940;50.900;4.672;2022-10-19T15:29:19;18.85;;;8.63;;
9801;SDS011;4940;50.900;4.672;2022-10-19T15:31:49;17.92;;;9.25;;
9801;SDS011;4940;50.900;4.672;2022-10-19T15:34:21;19.08;;;10.48;;
9801;SDS011;4940;50.900;4.672;2022-10-19T15:36:54;17.33;;;10.02;;
9801;SDS011;4940;50.900;4.672;2022-10-19T15:39:22;21.10;;;10.32;;
9801;SDS011;4940;50.900;4.672;2022-10-19T15:41:55;20.13;;;10.15;;
9801;SDS011;4940;50.900;4.672;2022-10-19T15:44:30;18.98;;;10.30;;
9801;SDS011;4940;50.900;4.672;2022-10-19T15:52:51;17.52;;;9.90;;
9801;SDS011;4940;50.900;4.672;2022-10-19T15:55:19;18.95;;;9.75;;
9801;SDS011;4940;50.900;4.672;2022-10-19T15:57:46;18.48;;;9.35;;